createdAt,value
2022-08-17T00:00:02.232Z,32
2022-08-17T00:02:18.728Z,38.8
2022-08-17T00:04:08.051Z,37.7
2022-08-17T00:06:05.301Z,37.2
2022-08-17T00:08:06.318Z,42.5
2022-08-17T00:10:10.554Z,35.3
2022-08-17T00:14:12.626Z,34.7
2022-08-17T00:16:13.648Z,34.2
2022-08-17T00:20:15.724Z,31.4
2022-08-17T00:22:33.716Z,32.6
2022-08-17T00:24:21.001Z,34.5
2022-08-17T00:26:34.711Z,39
2022-08-17T00:28:23.091Z,35
2022-08-17T00:30:24.131Z,33.7
2022-08-17T00:33:15.195Z,37.6
2022-08-17T00:34:27.947Z,35.1
2022-08-17T00:36:27.251Z,37
2022-08-17T00:38:31.473Z,31.1
2022-08-17T00:42:33.585Z,32.3
2022-08-17T00:46:56.806Z,31
2022-08-17T00:48:57.858Z,34.3
2022-08-17T00:51:02.097Z,29
2022-08-17T00:55:04.175Z,37
2022-08-17T00:57:05.248Z,32.9
2022-08-17T00:59:06.281Z,42.8
2022-08-17T01:01:07.358Z,36.5
2022-08-17T01:03:08.350Z,39
2022-08-17T01:05:12.609Z,38
2022-08-17T01:07:13.643Z,38.9
2022-08-17T01:09:14.691Z,33.2
2022-08-17T01:11:15.721Z,44.9
2022-08-17T01:13:16.780Z,39.1
2022-08-17T01:15:17.820Z,31.8
2022-08-17T01:17:18.871Z,31.5
2022-08-17T01:19:23.127Z,36.8
2022-08-17T01:21:24.162Z,40.3
2022-08-17T01:23:25.221Z,36.5
2022-08-17T01:25:26.277Z,38.5
2022-08-17T01:27:27.314Z,39.4
2022-08-17T01:29:28.364Z,43
2022-08-17T01:31:29.442Z,40.7
2022-08-17T01:33:33.665Z,49.3
2022-08-17T01:38:37.909Z,39
2022-08-17T01:42:40.002Z,47
2022-08-17T01:48:46.389Z,47.1
2022-08-17T01:50:47.440Z,39.2
2022-08-17T01:52:48.611Z,49.2
2022-08-17T01:54:49.562Z,50
2022-08-17T01:56:50.619Z,48.1
2022-08-17T01:58:51.671Z,42.2
2022-08-17T02:01:01.311Z,47.8
2022-08-17T02:02:57.010Z,44.4
2022-08-17T02:04:58.068Z,52
2022-08-17T02:06:59.125Z,51.5
2022-08-17T02:09:03.111Z,57.1
2022-08-17T02:11:02.777Z,44.1
2022-08-17T02:15:08.099Z,49.5
2022-08-17T02:17:09.145Z,52.7
2022-08-17T02:19:10.229Z,51.1
2022-08-17T02:21:11.267Z,45.4
2022-08-17T02:23:12.327Z,46.3
2022-08-17T02:25:13.370Z,44.7
2022-08-17T02:27:14.467Z,43.8
2022-08-17T02:29:18.715Z,45
2022-08-17T02:31:19.775Z,48.7
2022-08-17T02:33:20.853Z,44.8
2022-08-17T02:34:22.960Z,47.1
2022-08-17T02:36:27.300Z,42.4
2022-08-17T02:40:36.116Z,42.3
2022-08-17T02:42:30.421Z,45.2
2022-08-17T02:44:39.431Z,42.4
2022-08-17T02:46:32.562Z,40.1
2022-08-17T02:48:33.608Z,44
2022-08-17T02:54:41.499Z,47.7
2022-08-17T03:10:51.685Z,45.6
2022-08-17T03:12:52.755Z,39
2022-08-17T03:16:54.882Z,46.6
2022-08-17T03:18:55.925Z,46.2
2022-08-17T03:23:02.781Z,44.3
2022-08-17T03:25:02.319Z,47.1
2022-08-17T03:27:03.347Z,44.4
2022-08-17T03:29:04.426Z,42.2
2022-08-17T03:34:08.674Z,48.6
2022-08-17T03:40:15.120Z,48.3
2022-08-17T03:42:32.071Z,42.8
2022-08-17T03:44:17.197Z,48.3
2022-08-17T03:46:28.917Z,58
2022-08-17T03:48:19.294Z,44.8
2022-08-17T03:50:20.358Z,46.5
2022-08-17T03:52:24.607Z,43.6
2022-08-17T03:54:25.673Z,45.1
2022-08-17T03:56:26.706Z,42.4
2022-08-17T03:58:27.800Z,48.2
2022-08-17T04:00:28.846Z,48.5
2022-08-17T04:02:29.932Z,52.6
2022-08-17T04:04:30.975Z,53.8
2022-08-17T04:06:35.232Z,52.8
2022-08-17T04:08:36.289Z,43.8
2022-08-17T04:10:41.343Z,48.2
2022-08-17T04:12:38.396Z,43.2
2022-08-17T04:14:53.699Z,51.8
2022-08-17T04:16:40.526Z,51.2
2022-08-17T04:18:41.591Z,44.9
2022-08-17T04:20:45.831Z,48.5
2022-08-17T04:22:46.968Z,53.4
2022-08-17T04:24:47.976Z,59.9
2022-08-17T04:27:15.242Z,58.5
2022-08-17T04:29:16.301Z,50.7
2022-08-17T04:31:17.358Z,53.5
2022-08-17T04:35:22.702Z,51.5
2022-08-17T04:37:23.745Z,62.2
2022-08-17T04:39:24.860Z,51.5
2022-08-17T04:41:25.890Z,43.1
2022-08-17T04:45:28.017Z,51.1
2022-08-17T04:47:32.271Z,54
2022-08-17T04:49:33.340Z,46.4
2022-08-17T05:01:42.973Z,54.9
2022-08-17T05:03:44.026Z,53.7
2022-08-17T05:05:45.073Z,55.3
2022-08-17T05:07:46.147Z,42.2
2022-08-17T05:09:47.211Z,50.9
2022-08-17T05:11:48.306Z,47
2022-08-17T05:13:49.338Z,45.7
2022-08-17T05:15:53.608Z,46
2022-08-17T05:17:54.671Z,56.9
2022-08-17T05:19:55.738Z,47.4
2022-08-17T05:20:57.874Z,44.6
2022-08-17T05:22:58.941Z,50.2
2022-08-17T05:24:59.985Z,47.7
2022-08-17T05:27:06.476Z,41.3
2022-08-17T05:29:05.306Z,36.1
2022-08-17T05:31:06.375Z,41.5
2022-08-17T05:39:16.624Z,76.2
2022-08-17T05:43:15.992Z,46.7
2022-08-17T05:45:17.025Z,48.9
2022-08-17T05:47:18.108Z,48.7
2022-08-17T05:49:19.180Z,48.8
2022-08-17T05:51:20.233Z,42.5
2022-08-17T05:55:22.367Z,66.8
2022-08-17T05:57:26.635Z,61.6
2022-08-17T05:59:27.686Z,64.8
2022-08-17T06:01:28.820Z,65.6
2022-08-17T06:03:29.819Z,64.6
2022-08-17T06:07:31.964Z,69.9
2022-08-17T06:09:33.792Z,73.6
2022-08-17T06:16:41.591Z,76
2022-08-17T06:18:42.648Z,73.4
2022-08-17T06:20:43.715Z,71.5
2022-08-17T06:22:44.784Z,77.6
2022-08-17T06:28:51.225Z,85.4
2022-08-17T06:30:58.659Z,65.6
2022-08-17T06:32:53.353Z,63.7
2022-08-17T06:34:54.435Z,72.4
2022-08-17T06:36:55.484Z,63.6
2022-08-17T06:43:06.907Z,79.6
2022-08-17T06:45:02.984Z,58.2
2022-08-17T06:47:04.026Z,56.8
2022-08-17T06:49:05.103Z,65.4
2022-08-17T06:51:06.165Z,54.5
2022-08-17T06:55:18.683Z,57.5
2022-08-17T06:57:12.568Z,60.4
2022-08-17T06:59:13.616Z,79.1
2022-08-17T07:01:14.784Z,47.9
2022-08-17T07:03:15.756Z,46.2
2022-08-17T07:05:16.817Z,58.8
2022-08-17T07:07:21.061Z,64.4
2022-08-17T07:09:22.105Z,42
2022-08-17T07:12:25.441Z,44.7
2022-08-17T07:14:26.342Z,43.8
2022-08-17T07:16:27.391Z,44.9
2022-08-17T07:18:28.454Z,32.7
2022-08-17T07:20:32.700Z,38.3
2022-08-17T07:22:57.362Z,39.4
2022-08-17T07:24:34.782Z,43.8
2022-08-17T07:26:35.816Z,38.4
2022-08-17T07:28:36.851Z,43.1
2022-08-17T07:32:38.933Z,41.1
2022-08-17T07:34:43.176Z,42.4
2022-08-17T07:36:44.214Z,43.1
2022-08-17T07:38:45.247Z,33.1
2022-08-17T07:50:54.616Z,31.2
2022-08-17T07:52:55.650Z,34.8
2022-08-17T07:54:56.668Z,36.6
2022-08-17T07:56:57.697Z,30.2
2022-08-17T07:58:58.742Z,28.8
2022-08-17T08:01:01.302Z,37.9
2022-08-17T08:03:05.449Z,36.6
2022-08-17T08:05:08.594Z,33.1
2022-08-17T08:07:07.494Z,32.8
2022-08-17T08:09:25.301Z,-1
2022-08-17T08:11:31.327Z,32.9
2022-08-17T08:13:32.447Z,37
2022-08-17T08:15:36.566Z,38.5
2022-08-17T08:17:37.564Z,27.3
2022-08-17T08:19:38.575Z,39.1
2022-08-17T08:21:39.582Z,29.4
2022-08-17T08:23:40.583Z,31.8
2022-08-17T08:29:46.830Z,28.4
2022-08-17T08:31:47.819Z,33.6
2022-08-17T08:33:48.841Z,40
2022-08-17T08:35:49.849Z,32.8
2022-08-17T08:43:57.081Z,48.3
2022-08-17T08:48:05.096Z,33.9
2022-08-17T08:50:04.001Z,36.5
2022-08-17T08:52:01.131Z,33
2022-08-17T08:54:02.138Z,35
2022-08-17T08:56:03.253Z,38.4
2022-08-17T08:58:07.350Z,32.8
2022-08-17T09:00:08.378Z,35.2
2022-08-17T09:02:09.371Z,29.7
2022-08-17T09:03:11.489Z,28.6
2022-08-17T09:05:15.070Z,41.6
2022-08-17T09:07:13.471Z,37.8
2022-08-17T09:09:14.448Z,30.2
2022-08-17T09:11:18.663Z,32.9
2022-08-17T09:15:20.619Z,29.3
2022-08-17T09:21:23.584Z,38.5
2022-08-17T09:23:24.549Z,39.7
2022-08-17T09:25:28.731Z,30.2
2022-08-17T09:27:29.704Z,31.5
2022-08-17T09:29:30.675Z,32.3
2022-08-17T09:31:33.446Z,30.5
2022-08-17T09:33:32.610Z,28.7
2022-08-17T09:35:37.062Z,25.4
2022-08-17T09:37:34.539Z,30.2
2022-08-17T09:39:38.795Z,33.5
2022-08-17T09:41:39.697Z,32
2022-08-17T09:43:40.658Z,29.8
2022-08-17T09:45:41.681Z,26.7
2022-08-17T09:47:36.795Z,23
2022-08-17T09:49:37.728Z,29
2022-08-17T09:51:38.655Z,28.7
2022-08-17T09:53:44.790Z,25.7
2022-08-17T09:57:44.729Z,25.6
2022-08-17T10:00:47.726Z,30
2022-08-17T10:02:48.599Z,26
2022-08-17T10:04:49.498Z,31.6
2022-08-17T10:06:53.650Z,35.3
2022-08-17T10:08:54.585Z,29.3
2022-08-17T10:14:57.342Z,24
2022-08-17T10:16:58.252Z,29.2
2022-08-17T10:18:59.183Z,22.4
2022-08-17T10:21:03.337Z,28.9
2022-08-17T10:23:04.293Z,28
2022-08-17T10:25:22.223Z,27.8
2022-08-17T10:31:33.647Z,33.8
2022-08-17T10:33:09.001Z,28.8
2022-08-17T10:35:13.175Z,38.2
2022-08-17T10:37:14.106Z,39.5
2022-08-17T10:39:15.085Z,35.9
2022-08-17T10:41:16.032Z,35.6
2022-08-17T10:43:16.985Z,38.7
2022-08-17T10:45:17.935Z,28.4
2022-08-17T10:47:18.902Z,34.1
2022-08-17T10:49:23.078Z,33.3
2022-08-17T10:51:24.042Z,37.7
2022-08-17T10:53:24.991Z,37.7
2022-08-17T10:54:27.106Z,32.9
2022-08-17T10:56:28.086Z,36.9
2022-08-17T10:58:29.054Z,47.2
2022-08-17T11:00:29.990Z,53.5
2022-08-17T11:02:34.189Z,34.8
2022-08-17T11:04:35.125Z,36.9
2022-08-17T11:06:36.097Z,50.1
2022-08-17T11:08:37.082Z,41.3
2022-08-17T11:12:38.973Z,39.8
2022-08-17T11:14:39.935Z,34.8
2022-08-17T11:22:47.043Z,43.3
2022-08-17T11:24:47.955Z,35
2022-08-17T11:26:48.931Z,40.1
2022-08-17T11:28:52.455Z,38.8
2022-08-17T11:30:54.032Z,49.9
2022-08-17T11:32:55.465Z,39.3
2022-08-17T11:38:57.889Z,52
2022-08-17T11:42:59.773Z,36.9
2022-08-17T11:45:03.963Z,41.6
2022-08-17T11:47:04.904Z,39.5
2022-08-17T11:49:05.894Z,42.5
2022-08-17T11:51:33.627Z,46.7
2022-08-17T11:53:34.593Z,40.9
2022-08-17T11:55:38.214Z,38.7
2022-08-17T11:57:39.732Z,48.1
2022-08-17T11:59:40.685Z,55
2022-08-17T12:01:41.677Z,56.5
2022-08-17T12:03:42.601Z,43.5
2022-08-17T12:05:43.577Z,43.9
2022-08-17T12:07:44.574Z,41
2022-08-17T12:09:45.502Z,48.6
2022-08-17T12:11:58.767Z,48.6
2022-08-17T12:13:50.640Z,42.3
2022-08-17T12:15:51.621Z,43.3
2022-08-17T12:17:53.220Z,41.4
2022-08-17T12:19:53.559Z,47.2
2022-08-17T12:21:54.547Z,53.3
2022-08-17T12:23:55.519Z,47.1
2022-08-17T12:25:59.692Z,45.7
2022-08-17T12:28:06.030Z,46.3
2022-08-17T12:30:01.655Z,42.6
2022-08-17T12:32:02.619Z,45.7
2022-08-17T12:34:03.611Z,61.4
2022-08-17T12:36:04.607Z,53.9
2022-08-17T12:38:05.573Z,46.9
2022-08-17T12:40:09.832Z,52.9
2022-08-17T12:42:10.776Z,56.5
2022-08-17T12:44:11.740Z,48.4
2022-08-17T12:45:13.847Z,44
2022-08-17T12:47:19.443Z,57
2022-08-17T12:57:22.957Z,47.2
2022-08-17T13:01:25.113Z,46.7
2022-08-17T13:07:31.107Z,51.9
2022-08-17T13:09:35.299Z,46.2
2022-08-17T13:15:35.059Z,47.2
2022-08-17T13:17:36.071Z,42.6
2022-08-17T13:19:40.571Z,53.1
2022-08-17T13:21:41.260Z,61
2022-08-17T13:23:42.690Z,56.8
2022-08-17T13:25:43.258Z,53.6
2022-08-17T13:27:44.265Z,50.7
2022-08-17T13:29:45.275Z,53.2
2022-08-17T13:31:52.864Z,46.4
2022-08-17T13:33:47.276Z,52.4
2022-08-17T13:35:51.486Z,53
2022-08-17T13:37:52.607Z,53.5
2022-08-17T13:39:53.578Z,54.6
2022-08-17T13:40:55.605Z,76.3
2022-08-17T13:42:56.615Z,51.1
2022-08-17T13:44:57.625Z,49.3
2022-08-17T13:46:58.653Z,45.7
2022-08-17T13:49:04.386Z,58.4
2022-08-17T13:51:05.400Z,52
2022-08-17T13:55:07.433Z,52.7
2022-08-17T13:57:08.428Z,52.8
2022-08-17T13:59:09.448Z,67.4
2022-08-17T14:01:12.768Z,56.8
2022-08-17T14:05:15.716Z,62.5
2022-08-17T14:07:16.775Z,49.5
2022-08-17T14:11:18.801Z,60.8
2022-08-17T14:13:19.811Z,58.2
2022-08-17T14:15:20.848Z,55.9
2022-08-17T14:17:25.078Z,68.7
2022-08-17T14:19:26.120Z,62.6
2022-08-17T14:21:27.133Z,70.6
2022-08-17T14:23:28.143Z,68
2022-08-17T14:25:29.196Z,65.1
2022-08-17T14:27:30.186Z,73.3
2022-08-17T14:29:31.217Z,70.2
2022-08-17T14:31:37.411Z,73.2
2022-08-17T14:33:36.454Z,63.8
2022-08-17T14:35:37.485Z,62.8
2022-08-17T14:36:39.608Z,79.4
2022-08-17T14:38:40.622Z,78.1
2022-08-17T14:42:42.687Z,84.2
2022-08-17T14:44:46.929Z,88
2022-08-17T14:46:47.973Z,77.1
2022-08-17T14:48:51.696Z,81.2
2022-08-17T14:50:50.023Z,85.2
2022-08-17T14:52:51.048Z,81
2022-08-17T14:54:52.061Z,87.7
2022-08-17T14:57:09.374Z,71.3
2022-08-17T14:58:57.327Z,68.5
2022-08-17T15:00:58.432Z,71.4
2022-08-17T15:02:59.385Z,74.8
2022-08-17T15:05:00.428Z,59.5
2022-08-17T15:07:01.423Z,63.3
2022-08-17T15:09:02.543Z,72.3
2022-08-17T15:13:07.716Z,72
2022-08-17T15:15:08.750Z,62.9
2022-08-17T15:17:09.757Z,56.7
2022-08-17T15:19:10.780Z,66.2
2022-08-17T15:21:11.806Z,60.8
2022-08-17T15:23:12.838Z,50.4
2022-08-17T15:25:13.900Z,52.5
2022-08-17T15:27:18.089Z,55.8
2022-08-17T15:29:19.115Z,47.3
2022-08-17T15:35:37.376Z,36.5
2022-08-17T15:37:38.400Z,41.7
2022-08-17T15:39:42.692Z,36
2022-08-17T15:41:43.632Z,39.8
2022-08-17T15:43:44.667Z,38.8
2022-08-17T15:45:58.792Z,42.5
2022-08-17T15:47:46.794Z,41.3
2022-08-17T15:49:47.675Z,50
2022-08-17T15:51:48.717Z,43.2
2022-08-17T15:53:52.882Z,53
2022-08-17T15:55:53.898Z,53.3
2022-08-17T15:57:54.900Z,51.5
2022-08-17T16:03:13.251Z,54.9
2022-08-17T16:04:05.173Z,54.9
2022-08-17T16:05:58.942Z,55.5
2022-08-17T16:08:03.190Z,57
2022-08-17T16:10:04.165Z,59.3
2022-08-17T16:12:05.186Z,65.6
2022-08-17T16:14:06.190Z,68.5
2022-08-17T16:16:07.196Z,67.4
2022-08-17T16:18:08.211Z,79.7
2022-08-17T16:20:09.221Z,69.9
2022-08-17T16:27:17.584Z,73.5
2022-08-17T16:29:18.622Z,70.3
2022-08-17T16:31:19.637Z,80.9
2022-08-17T16:33:20.654Z,73
2022-08-17T16:35:24.905Z,77.5
2022-08-17T16:37:25.899Z,80.2
2022-08-17T16:39:27.152Z,76.3
2022-08-17T16:41:27.961Z,69.5
2022-08-17T16:43:28.963Z,70.3
2022-08-17T16:49:38.071Z,68.1
2022-08-17T16:53:37.339Z,100.6
2022-08-17T16:55:38.352Z,74.9
2022-08-17T16:57:47.428Z,79.8
2022-08-17T16:59:43.605Z,83.1
2022-08-17T17:01:41.463Z,81.4
2022-08-17T17:07:47.767Z,75.6
2022-08-17T17:09:48.809Z,80.9
2022-08-17T17:11:49.831Z,89.2
2022-08-17T17:13:50.879Z,86.4
2022-08-17T17:15:51.899Z,80.9
2022-08-17T17:19:57.189Z,74.8
2022-08-17T17:21:58.209Z,76.8
2022-08-17T17:23:00.341Z,81.2
2022-08-17T17:25:01.400Z,73.8
2022-08-17T17:27:02.390Z,65.4
2022-08-17T17:29:03.417Z,59.5
2022-08-17T17:31:07.646Z,54.8
2022-08-17T17:33:08.689Z,54.8
2022-08-17T17:35:09.736Z,55.3
2022-08-17T17:45:18.068Z,42.7
2022-08-17T17:47:19.096Z,37.1
2022-08-17T17:49:20.106Z,44
2022-08-17T17:51:54.818Z,36.3
2022-08-17T17:55:23.223Z,53.7
2022-08-17T17:57:24.261Z,50.9
2022-08-17T17:59:28.474Z,57.2
2022-08-17T18:01:29.567Z,50.1
2022-08-17T18:07:32.615Z,51.9
2022-08-17T18:09:33.957Z,48.1
2022-08-17T18:11:35.171Z,49.8
2022-08-17T18:13:38.937Z,52.7
2022-08-17T18:15:39.957Z,51
2022-08-17T18:17:41.006Z,58.2
2022-08-17T18:18:43.107Z,60.2
2022-08-17T18:20:53.620Z,52.1
2022-08-17T18:22:45.209Z,62.3
2022-08-17T18:24:46.245Z,57.7
2022-08-17T18:26:50.524Z,53.4
2022-08-17T18:28:51.541Z,57.5
2022-08-17T18:30:52.575Z,57.8
2022-08-17T18:32:53.630Z,57.8
2022-08-17T18:34:54.663Z,55
2022-08-17T18:36:55.711Z,59.5
2022-08-17T18:38:56.795Z,47.2
2022-08-17T18:43:02.126Z,56.7
2022-08-17T18:53:07.408Z,57.8
2022-08-17T18:55:11.604Z,51.5
2022-08-17T18:57:12.594Z,48.5
2022-08-17T18:59:13.656Z,49.8
2022-08-17T19:01:14.738Z,52.8
2022-08-17T19:07:17.935Z,55.6
2022-08-17T19:09:22.216Z,55.5
2022-08-17T19:11:23.238Z,53.1
2022-08-17T19:13:24.780Z,54.8
2022-08-17T19:16:11.674Z,54.9
2022-08-17T19:17:51.277Z,51
2022-08-17T19:19:52.201Z,65.4
2022-08-17T19:21:56.403Z,58.7
2022-08-17T19:23:57.514Z,61.9
2022-08-17T19:25:58.504Z,56.5
2022-08-17T19:28:00.006Z,53.2
2022-08-17T19:32:01.680Z,55.7
2022-08-17T19:34:02.790Z,67.8
2022-08-17T19:38:12.977Z,55.3
2022-08-17T19:40:10.699Z,56.4
2022-08-17T19:46:13.753Z,58.8
2022-08-17T19:50:19.058Z,69.7
2022-08-17T19:52:20.106Z,75.7
2022-08-17T19:54:21.140Z,67.5
2022-08-17T19:56:22.190Z,69.3
2022-08-17T19:58:23.256Z,72.3
2022-08-17T20:00:24.356Z,67.2
2022-08-17T20:02:25.363Z,64.4
2022-08-17T20:04:32.325Z,73.7
2022-08-17T20:06:30.675Z,69.4
2022-08-17T20:09:34.026Z,66.2
2022-08-17T20:15:36.976Z,70.2
2022-08-17T20:17:41.229Z,73.9
2022-08-17T20:25:45.405Z,56.1
2022-08-17T20:27:46.533Z,74.3
2022-08-17T20:29:47.503Z,58.9
2022-08-17T20:31:51.762Z,61.9
2022-08-17T20:33:52.825Z,70.4
2022-08-17T20:35:53.862Z,68.7
2022-08-17T20:37:54.917Z,62.5
2022-08-17T20:39:56.012Z,73.9
2022-08-17T20:42:02.054Z,69.4
2022-08-17T20:43:58.069Z,60.2
2022-08-17T20:46:02.318Z,62.7
2022-08-17T20:48:37.059Z,63.4
2022-08-17T20:50:04.417Z,72.3
2022-08-17T20:52:05.468Z,62.6
2022-08-17T20:54:06.568Z,68.6
2022-08-17T20:56:07.576Z,56.2
2022-08-17T20:58:08.628Z,66.2
2022-08-17T21:00:12.886Z,57.8
2022-08-17T21:02:18.464Z,62.9
2022-08-17T21:04:14.942Z,68.1
2022-08-17T21:05:17.081Z,54.4
2022-08-17T21:07:18.153Z,55.6
2022-08-17T21:09:19.187Z,58.1
2022-08-17T21:11:20.239Z,67.9
2022-08-17T21:13:24.487Z,60.7
2022-08-17T21:15:25.569Z,67.6
2022-08-17T21:17:26.629Z,71.5
2022-08-17T21:21:28.751Z,54.5
2022-08-17T21:23:29.791Z,57.5
2022-08-17T21:25:30.832Z,66.1
2022-08-17T21:27:35.110Z,59.9
2022-08-17T21:29:40.493Z,64.4
2022-08-17T21:33:38.271Z,52.5
2022-08-17T21:35:39.344Z,55.8
2022-08-17T21:39:41.494Z,49.9
2022-08-17T21:47:48.930Z,48.3
2022-08-17T21:49:49.996Z,47.8
2022-08-17T21:51:51.079Z,50.1
2022-08-17T21:53:52.154Z,48.7
2022-08-17T21:58:14.616Z,47.6
2022-08-17T21:59:58.556Z,46.7
2022-08-17T22:03:01.758Z,55.7
2022-08-17T22:05:02.932Z,47.7
2022-08-17T22:07:03.866Z,50.7
2022-08-17T22:09:08.140Z,58.1
2022-08-17T22:11:09.247Z,52.5
2022-08-17T22:13:17.131Z,55.4
2022-08-17T22:15:11.368Z,51.9
2022-08-17T22:17:12.444Z,48.7
2022-08-17T22:19:13.523Z,52.5
2022-08-17T22:23:18.878Z,50.4
2022-08-17T22:25:19.981Z,61.1
2022-08-17T22:27:21.043Z,53.7
2022-08-17T22:29:22.121Z,52.5
2022-08-17T22:31:23.175Z,51.2
2022-08-17T22:35:25.311Z,45.4
2022-08-17T22:37:29.566Z,59.1
2022-08-17T22:39:30.691Z,50.8
2022-08-17T22:45:33.851Z,42.3
2022-08-17T22:51:40.266Z,48.3
2022-08-17T22:53:41.335Z,47.5
2022-08-17T22:58:10.351Z,43.6
2022-08-17T23:00:11.513Z,49.1
2022-08-17T23:02:12.539Z,50.2
2022-08-17T23:04:16.791Z,38.8
2022-08-17T23:06:17.878Z,40.9
2022-08-17T23:08:18.940Z,31.1
2022-08-17T23:12:21.096Z,32.9
2022-08-17T23:16:23.245Z,39.1
2022-08-17T23:18:27.483Z,41.8
2022-08-17T23:20:28.562Z,35.3
2022-08-17T23:22:29.641Z,35
2022-08-17T23:24:30.720Z,36.2
2022-08-17T23:26:31.782Z,33.6
2022-08-17T23:28:32.865Z,38
2022-08-17T23:30:33.933Z,35.3
2022-08-17T23:32:38.184Z,30
2022-08-17T23:34:39.230Z,31.5
2022-08-17T23:36:40.302Z,35.2
2022-08-17T23:38:41.377Z,31.9
2022-08-17T23:40:42.449Z,36.5
2022-08-17T23:42:43.836Z,33.2
2022-08-17T23:44:44.625Z,32.7
2022-08-17T23:48:49.959Z,40.9
